sensor_id;sensor_type;location;lat;lon;timestamp;P1;durP1;ratioP1;P2;durP2;ratioP2
14789;SDS011;7486;51.010;10.366;2023-07-28T00:02:40;1.40;;;1.30;;
14789;SDS011;7486;51.010;10.366;2023-07-28T00:05:26;1.60;;;1.45;;
14789;SDS011;7486;51.010;10.366;2023-07-28T00:08:11;1.92;;;1.33;;
14789;SDS011;7486;51.010;10.366;2023-07-28T00:10:57;1.77;;;1.42;;
14789;SDS011;7486;51.010;10.366;2023-07-28T00:13:47;1.75;;;1.10;;
14789;SDS011;7486;51.010;10.366;2023-07-28T00:16:32;1.50;;;1.30;;
14789;SDS011;7486;51.010;10.366;2023-07-28T00:19:19;1.80;;;1.23;;
14789;SDS011;7486;51.010;10.366;2023-07-28T00:22:05;3.83;;;1.50;;
14789;SDS011;7486;51.010;10.366;2023-07-28T00:24:50;2.25;;;1.40;;
14789;SDS011;7486;51.010;10.366;2023-07-28T00:27:36;3.30;;;1.50;;
14789;SDS011;7486;51.010;10.366;2023-07-28T00:30:23;1.83;;;1.33;;
14789;SDS011;7486;51.010;10.366;2023-07-28T00:33:09;1.30;;;1.20;;
14789;SDS011;7486;51.010;10.366;2023-07-28T00:35:55;2.22;;;1.30;;
14789;SDS011;7486;51.010;10.366;2023-07-28T00:38:40;1.20;;;1.10;;
14789;SDS011;7486;51.010;10.366;2023-07-28T00:41:26;1.40;;;1.30;;
14789;SDS011;7486;51.010;10.366;2023-07-28T00:44:11;1.70;;;1.60;;
14789;SDS011;7486;51.010;10.366;2023-07-28T00:46:57;2.25;;;1.40;;
14789;SDS011;7486;51.010;10.366;2023-07-28T00:49:42;2.15;;;1.20;;
14789;SDS011;7486;51.010;10.366;2023-07-28T00:52:28;1.60;;;1.40;;
14789;SDS011;7486;51.010;10.366;2023-07-28T00:55:14;1.33;;;1.23;;
14789;SDS011;7486;51.010;10.366;2023-07-28T00:58:01;1.40;;;1.30;;
14789;SDS011;7486;51.010;10.366;2023-07-28T01:00:47;2.28;;;1.20;;
14789;SDS011;7486;51.010;10.366;2023-07-28T01:03:32;1.40;;;1.30;;
14789;SDS011;7486;51.010;10.366;2023-07-28T01:06:20;1.75;;;1.40;;
14789;SDS011;7486;51.010;10.366;2023-07-28T01:09:16;1.10;;;1.00;;
14789;SDS011;7486;51.010;10.366;2023-07-28T01:12:07;1.48;;;1.27;;
14789;SDS011;7486;51.010;10.366;2023-07-28T01:14:53;1.33;;;1.20;;
14789;SDS011;7486;51.010;10.366;2023-07-28T01:17:39;1.65;;;1.55;;
14789;SDS011;7486;51.010;10.366;2023-07-28T01:20:25;2.33;;;1.30;;
14789;SDS011;7486;51.010;10.366;2023-07-28T01:23:18;1.30;;;1.20;;
14789;SDS011;7486;51.010;10.366;2023-07-28T01:28:53;1.85;;;1.33;;
14789;SDS011;7486;51.010;10.366;2023-07-28T01:31:39;1.58;;;1.40;;
14789;SDS011;7486;51.010;10.366;2023-07-28T01:34:25;1.50;;;1.40;;
14789;SDS011;7486;51.010;10.366;2023-07-28T01:37:10;1.60;;;1.40;;
14789;SDS011;7486;51.010;10.366;2023-07-28T01:39:56;1.98;;;1.42;;
14789;SDS011;7486;51.010;10.366;2023-07-28T01:42:42;2.63;;;1.48;;
14789;SDS011;7486;51.010;10.366;2023-07-28T01:45:27;2.33;;;1.40;;
14789;SDS011;7486;51.010;10.366;2023-07-28T01:48:13;1.40;;;1.20;;
14789;SDS011;7486;51.010;10.366;2023-07-28T01:50:58;1.30;;;1.20;;
14789;SDS011;7486;51.010;10.366;2023-07-28T01:53:43;1.58;;;1.35;;
14789;SDS011;7486;51.010;10.366;2023-07-28T01:56:29;1.40;;;1.30;;
14789;SDS011;7486;51.010;10.366;2023-07-28T01:59:15;2.50;;;1.45;;
14789;SDS011;7486;51.010;10.366;2023-07-28T02:02:01;1.50;;;1.33;;
14789;SDS011;7486;51.010;10.366;2023-07-28T02:04:46;2.28;;;1.40;;
14789;SDS011;7486;51.010;10.366;2023-07-28T02:07:32;1.77;;;1.40;;
14789;SDS011;7486;51.010;10.366;2023-07-28T02:10:18;2.13;;;1.40;;
14789;SDS011;7486;51.010;10.366;2023-07-28T02:13:03;1.83;;;1.30;;
14789;SDS011;7486;51.010;10.366;2023-07-28T02:15:48;1.85;;;1.33;;
14789;SDS011;7486;51.010;10.366;2023-07-28T02:18:34;2.33;;;1.30;;
14789;SDS011;7486;51.010;10.366;2023-07-28T02:21:19;1.80;;;1.20;;
14789;SDS011;7486;51.010;10.366;2023-07-28T02:24:05;1.50;;;1.40;;
14789;SDS011;7486;51.010;10.366;2023-07-28T02:26:51;1.70;;;1.40;;
14789;SDS011;7486;51.010;10.366;2023-07-28T02:29:36;1.55;;;1.42;;
14789;SDS011;7486;51.010;10.366;2023-07-28T02:32:21;2.42;;;1.58;;
14789;SDS011;7486;51.010;10.366;2023-07-28T02:35:07;1.73;;;1.48;;
14789;SDS011;7486;51.010;10.366;2023-07-28T02:37:53;1.40;;;1.27;;
14789;SDS011;7486;51.010;10.366;2023-07-28T02:40:39;2.40;;;1.38;;
14789;SDS011;7486;51.010;10.366;2023-07-28T02:43:24;3.33;;;1.60;;
14789;SDS011;7486;51.010;10.366;2023-07-28T02:46:10;2.03;;;1.38;;
14789;SDS011;7486;51.010;10.366;2023-07-28T02:48:55;1.63;;;1.08;;
14789;SDS011;7486;51.010;10.366;2023-07-28T02:51:41;2.80;;;1.50;;
14789;SDS011;7486;51.010;10.366;2023-07-28T02:54:26;2.00;;;1.30;;
14789;SDS011;7486;51.010;10.366;2023-07-28T02:57:12;1.33;;;1.23;;
14789;SDS011;7486;51.010;10.366;2023-07-28T03:00:00;2.65;;;1.35;;
14789;SDS011;7486;51.010;10.366;2023-07-28T03:02:46;1.50;;;1.27;;
14789;SDS011;7486;51.010;10.366;2023-07-28T03:05:32;1.33;;;1.23;;
14789;SDS011;7486;51.010;10.366;2023-07-28T03:08:30;1.30;;;1.20;;
14789;SDS011;7486;51.010;10.366;2023-07-28T03:11:33;1.17;;;0.90;;
14789;SDS011;7486;51.010;10.366;2023-07-28T03:14:19;0.95;;;0.95;;
14789;SDS011;7486;51.010;10.366;2023-07-28T03:17:04;1.17;;;1.08;;
14789;SDS011;7486;51.010;10.366;2023-07-28T03:19:50;1.10;;;1.00;;
14789;SDS011;7486;51.010;10.366;2023-07-28T03:22:36;0.90;;;0.90;;
14789;SDS011;7486;51.010;10.366;2023-07-28T03:25:21;0.80;;;0.80;;
14789;SDS011;7486;51.010;10.366;2023-07-28T03:28:06;1.17;;;1.00;;
14789;SDS011;7486;51.010;10.366;2023-07-28T03:30:52;0.65;;;0.65;;
14789;SDS011;7486;51.010;10.366;2023-07-28T03:33:38;1.42;;;0.90;;
14789;SDS011;7486;51.010;10.366;2023-07-28T03:36:23;1.35;;;0.90;;
14789;SDS011;7486;51.010;10.366;2023-07-28T03:39:08;0.95;;;0.88;;
14789;SDS011;7486;51.010;10.366;2023-07-28T03:41:54;2.10;;;0.80;;
14789;SDS011;7486;51.010;10.366;2023-07-28T03:44:41;0.68;;;0.65;;
14789;SDS011;7486;51.010;10.366;2023-07-28T03:47:27;0.93;;;0.93;;
14789;SDS011;7486;51.010;10.366;2023-07-28T03:50:12;0.63;;;0.63;;
14789;SDS011;7486;51.010;10.366;2023-07-28T03:52:58;0.80;;;0.80;;
14789;SDS011;7486;51.010;10.366;2023-07-28T03:55:43;1.00;;;0.60;;
14789;SDS011;7486;51.010;10.366;2023-07-28T03:58:29;0.80;;;0.80;;
14789;SDS011;7486;51.010;10.366;2023-07-28T04:01:14;0.90;;;0.60;;
14789;SDS011;7486;51.010;10.366;2023-07-28T04:04:00;2.40;;;0.70;;
14789;SDS011;7486;51.010;10.366;2023-07-28T04:06:46;1.20;;;0.85;;
14789;SDS011;7486;51.010;10.366;2023-07-28T04:09:33;0.77;;;0.52;;
14789;SDS011;7486;51.010;10.366;2023-07-28T04:12:18;2.28;;;0.77;;
14789;SDS011;7486;51.010;10.366;2023-07-28T04:15:04;0.95;;;0.70;;
14789;SDS011;7486;51.010;10.366;2023-07-28T04:17:49;0.75;;;0.70;;
14789;SDS011;7486;51.010;10.366;2023-07-28T04:20:35;2.25;;;0.68;;
14789;SDS011;7486;51.010;10.366;2023-07-28T04:23:20;0.60;;;0.60;;
14789;SDS011;7486;51.010;10.366;2023-07-28T04:26:06;3.05;;;1.00;;
14789;SDS011;7486;51.010;10.366;2023-07-28T04:28:52;1.05;;;0.85;;
14789;SDS011;7486;51.010;10.366;2023-07-28T04:31:37;1.10;;;0.77;;
14789;SDS011;7486;51.010;10.366;2023-07-28T04:34:26;0.77;;;0.70;;
14789;SDS011;7486;51.010;10.366;2023-07-28T04:37:27;0.88;;;0.80;;
14789;SDS011;7486;51.010;10.366;2023-07-28T04:40:16;0.98;;;0.63;;
14789;SDS011;7486;51.010;10.366;2023-07-28T04:43:02;0.60;;;0.60;;
14789;SDS011;7486;51.010;10.366;2023-07-28T04:45:47;1.30;;;0.80;;
14789;SDS011;7486;51.010;10.366;2023-07-28T04:48:36;0.80;;;0.80;;
14789;SDS011;7486;51.010;10.366;2023-07-28T04:51:30;1.13;;;0.63;;
14789;SDS011;7486;51.010;10.366;2023-07-28T04:54:39;1.00;;;0.70;;
14789;SDS011;7486;51.010;10.366;2023-07-28T04:57:24;1.08;;;0.85;;
14789;SDS011;7486;51.010;10.366;2023-07-28T05:00:10;0.77;;;0.60;;
14789;SDS011;7486;51.010;10.366;2023-07-28T05:02:56;1.05;;;0.70;;
14789;SDS011;7486;51.010;10.366;2023-07-28T05:05:43;0.60;;;0.60;;
14789;SDS011;7486;51.010;10.366;2023-07-28T05:08:30;0.82;;;0.82;;
14789;SDS011;7486;51.010;10.366;2023-07-28T05:11:16;1.02;;;0.80;;
14789;SDS011;7486;51.010;10.366;2023-07-28T05:14:02;1.02;;;0.80;;
14789;SDS011;7486;51.010;10.366;2023-07-28T05:16:48;1.58;;;0.80;;
14789;SDS011;7486;51.010;10.366;2023-07-28T05:20:09;0.75;;;0.75;;
14789;SDS011;7486;51.010;10.366;2023-07-28T05:23:04;0.68;;;0.68;;
14789;SDS011;7486;51.010;10.366;2023-07-28T05:25:50;0.63;;;0.63;;
14789;SDS011;7486;51.010;10.366;2023-07-28T05:28:36;0.70;;;0.70;;
14789;SDS011;7486;51.010;10.366;2023-07-28T05:31:22;0.73;;;0.73;;
14789;SDS011;7486;51.010;10.366;2023-07-28T05:34:07;0.63;;;0.63;;
14789;SDS011;7486;51.010;10.366;2023-07-28T05:36:53;1.55;;;0.80;;
14789;SDS011;7486;51.010;10.366;2023-07-28T05:39:41;1.08;;;0.80;;
14789;SDS011;7486;51.010;10.366;2023-07-28T05:42:26;1.77;;;0.80;;
14789;SDS011;7486;51.010;10.366;2023-07-28T05:45:12;0.73;;;0.73;;
14789;SDS011;7486;51.010;10.366;2023-07-28T05:47:58;0.70;;;0.70;;
14789;SDS011;7486;51.010;10.366;2023-07-28T05:50:43;1.33;;;0.77;;
14789;SDS011;7486;51.010;10.366;2023-07-28T05:53:29;0.98;;;0.90;;
14789;SDS011;7486;51.010;10.366;2023-07-28T05:56:20;0.80;;;0.80;;
14789;SDS011;7486;51.010;10.366;2023-07-28T05:59:05;0.88;;;0.88;;
14789;SDS011;7486;51.010;10.366;2023-07-28T06:01:51;1.17;;;0.98;;
14789;SDS011;7486;51.010;10.366;2023-07-28T06:04:36;1.80;;;1.00;;
14789;SDS011;7486;51.010;10.366;2023-07-28T06:07:23;2.45;;;0.90;;
14789;SDS011;7486;51.010;10.366;2023-07-28T06:10:08;3.38;;;0.90;;
14789;SDS011;7486;51.010;10.366;2023-07-28T06:12:54;1.60;;;1.00;;
14789;SDS011;7486;51.010;10.366;2023-07-28T06:15:40;2.78;;;1.00;;
14789;SDS011;7486;51.010;10.366;2023-07-28T06:18:26;0.95;;;0.90;;
14789;SDS011;7486;51.010;10.366;2023-07-28T06:21:26;1.75;;;1.00;;
14789;SDS011;7486;51.010;10.366;2023-07-28T06:24:12;1.48;;;1.10;;
14789;SDS011;7486;51.010;10.366;2023-07-28T06:26:57;1.23;;;0.98;;
14789;SDS011;7486;51.010;10.366;2023-07-28T06:29:43;1.15;;;1.00;;
14789;SDS011;7486;51.010;10.366;2023-07-28T06:32:28;0.95;;;0.95;;
14789;SDS011;7486;51.010;10.366;2023-07-28T06:35:14;0.90;;;0.90;;
14789;SDS011;7486;51.010;10.366;2023-07-28T06:38:00;1.00;;;1.00;;
14789;SDS011;7486;51.010;10.366;2023-07-28T06:40:46;0.90;;;0.77;;
14789;SDS011;7486;51.010;10.366;2023-07-28T06:43:33;1.17;;;1.00;;
14789;SDS011;7486;51.010;10.366;2023-07-28T06:46:19;0.73;;;0.70;;
14789;SDS011;7486;51.010;10.366;2023-07-28T06:49:05;0.85;;;0.80;;
14789;SDS011;7486;51.010;10.366;2023-07-28T06:51:50;0.80;;;0.80;;
14789;SDS011;7486;51.010;10.366;2023-07-28T06:54:36;0.85;;;0.85;;
14789;SDS011;7486;51.010;10.366;2023-07-28T06:57:25;0.80;;;0.80;;
14789;SDS011;7486;51.010;10.366;2023-07-28T07:00:11;1.60;;;0.98;;
14789;SDS011;7486;51.010;10.366;2023-07-28T07:02:56;1.70;;;0.90;;
14789;SDS011;7486;51.010;10.366;2023-07-28T07:05:42;1.10;;;1.00;;
14789;SDS011;7486;51.010;10.366;2023-07-28T07:08:28;0.93;;;0.70;;
14789;SDS011;7486;51.010;10.366;2023-07-28T07:11:13;0.80;;;0.80;;
14789;SDS011;7486;51.010;10.366;2023-07-28T07:13:59;0.63;;;0.63;;
14789;SDS011;7486;51.010;10.366;2023-07-28T07:16:44;0.70;;;0.70;;
14789;SDS011;7486;51.010;10.366;2023-07-28T07:19:30;0.65;;;0.65;;
14789;SDS011;7486;51.010;10.366;2023-07-28T07:22:15;0.95;;;0.50;;
14789;SDS011;7486;51.010;10.366;2023-07-28T07:25:01;2.05;;;0.65;;
14789;SDS011;7486;51.010;10.366;2023-07-28T07:27:49;0.55;;;0.55;;
14789;SDS011;7486;51.010;10.366;2023-07-28T07:30:35;0.88;;;0.63;;
14789;SDS011;7486;51.010;10.366;2023-07-28T07:33:21;0.60;;;0.60;;
14789;SDS011;7486;51.010;10.366;2023-07-28T07:36:11;1.27;;;0.60;;
14789;SDS011;7486;51.010;10.366;2023-07-28T07:39:00;0.73;;;0.73;;
14789;SDS011;7486;51.010;10.366;2023-07-28T07:41:45;0.63;;;0.55;;
14789;SDS011;7486;51.010;10.366;2023-07-28T07:44:31;1.08;;;0.60;;
14789;SDS011;7486;51.010;10.366;2023-07-28T07:47:16;0.70;;;0.70;;
14789;SDS011;7486;51.010;10.366;2023-07-28T07:50:02;0.77;;;0.65;;
14789;SDS011;7486;51.010;10.366;2023-07-28T07:52:48;0.57;;;0.57;;
14789;SDS011;7486;51.010;10.366;2023-07-28T07:55:33;1.30;;;0.43;;
14789;SDS011;7486;51.010;10.366;2023-07-28T07:58:19;0.77;;;0.55;;
14789;SDS011;7486;51.010;10.366;2023-07-28T08:01:05;0.85;;;0.50;;
14789;SDS011;7486;51.010;10.366;2023-07-28T08:03:50;1.05;;;0.50;;
14789;SDS011;7486;51.010;10.366;2023-07-28T08:06:36;0.52;;;0.52;;
14789;SDS011;7486;51.010;10.366;2023-07-28T08:09:21;0.57;;;0.57;;
14789;SDS011;7486;51.010;10.366;2023-07-28T08:12:07;0.85;;;0.60;;
14789;SDS011;7486;51.010;10.366;2023-07-28T08:14:53;0.50;;;0.38;;
14789;SDS011;7486;51.010;10.366;2023-07-28T08:17:41;2.33;;;0.45;;
14789;SDS011;7486;51.010;10.366;2023-07-28T08:20:26;0.50;;;0.50;;
14789;SDS011;7486;51.010;10.366;2023-07-28T08:23:12;0.40;;;0.40;;
14789;SDS011;7486;51.010;10.366;2023-07-28T08:25:58;0.50;;;0.50;;
14789;SDS011;7486;51.010;10.366;2023-07-28T08:28:43;0.30;;;0.30;;
14789;SDS011;7486;51.010;10.366;2023-07-28T08:31:28;0.47;;;0.47;;
14789;SDS011;7486;51.010;10.366;2023-07-28T08:34:14;0.35;;;0.35;;
14789;SDS011;7486;51.010;10.366;2023-07-28T08:37:01;0.30;;;0.30;;
14789;SDS011;7486;51.010;10.366;2023-07-28T08:39:46;0.47;;;0.40;;
14789;SDS011;7486;51.010;10.366;2023-07-28T08:42:35;0.77;;;0.50;;
14789;SDS011;7486;51.010;10.366;2023-07-28T08:45:22;0.52;;;0.52;;
14789;SDS011;7486;51.010;10.366;2023-07-28T08:48:08;0.40;;;0.40;;
14789;SDS011;7486;51.010;10.366;2023-07-28T08:50:54;0.57;;;0.57;;
14789;SDS011;7486;51.010;10.366;2023-07-28T08:53:40;0.50;;;0.50;;
14789;SDS011;7486;51.010;10.366;2023-07-28T08:56:25;1.27;;;0.35;;
14789;SDS011;7486;51.010;10.366;2023-07-28T08:59:11;0.55;;;0.40;;
14789;SDS011;7486;51.010;10.366;2023-07-28T09:01:57;0.50;;;0.50;;
14789;SDS011;7486;51.010;10.366;2023-07-28T09:04:43;0.45;;;0.45;;
14789;SDS011;7486;51.010;10.366;2023-07-28T09:07:35;0.47;;;0.47;;
14789;SDS011;7486;51.010;10.366;2023-07-28T09:10:21;0.45;;;0.43;;
14789;SDS011;7486;51.010;10.366;2023-07-28T09:13:11;0.95;;;0.40;;
14789;SDS011;7486;51.010;10.366;2023-07-28T09:16:01;0.40;;;0.40;;
14789;SDS011;7486;51.010;10.366;2023-07-28T09:18:46;0.50;;;0.50;;
14789;SDS011;7486;51.010;10.366;2023-07-28T09:21:32;0.57;;;0.40;;
14789;SDS011;7486;51.010;10.366;2023-07-28T09:24:18;0.50;;;0.50;;
14789;SDS011;7486;51.010;10.366;2023-07-28T09:27:04;0.63;;;0.32;;
14789;SDS011;7486;51.010;10.366;2023-07-28T09:29:50;1.85;;;0.47;;
14789;SDS011;7486;51.010;10.366;2023-07-28T09:32:37;0.60;;;0.30;;
14789;SDS011;7486;51.010;10.366;2023-07-28T09:35:22;0.50;;;0.50;;
14789;SDS011;7486;51.010;10.366;2023-07-28T09:38:08;0.50;;;0.50;;
14789;SDS011;7486;51.010;10.366;2023-07-28T09:40:54;1.42;;;0.70;;
14789;SDS011;7486;51.010;10.366;2023-07-28T09:43:42;1.10;;;0.50;;
14789;SDS011;7486;51.010;10.366;2023-07-28T09:46:28;0.68;;;0.60;;
14789;SDS011;7486;51.010;10.366;2023-07-28T09:49:14;0.57;;;0.57;;
14789;SDS011;7486;51.010;10.366;2023-07-28T09:52:05;0.98;;;0.57;;
14789;SDS011;7486;51.010;10.366;2023-07-28T09:54:53;0.52;;;0.50;;
14789;SDS011;7486;51.010;10.366;2023-07-28T09:57:44;0.40;;;0.40;;
14789;SDS011;7486;51.010;10.366;2023-07-28T10:00:31;0.50;;;0.50;;
14789;SDS011;7486;51.010;10.366;2023-07-28T10:03:18;0.50;;;0.50;;
14789;SDS011;7486;51.010;10.366;2023-07-28T10:06:04;0.88;;;0.47;;
14789;SDS011;7486;51.010;10.366;2023-07-28T10:08:50;0.60;;;0.60;;
14789;SDS011;7486;51.010;10.366;2023-07-28T10:11:35;0.60;;;0.50;;
14789;SDS011;7486;51.010;10.366;2023-07-28T10:14:40;1.00;;;0.70;;
14789;SDS011;7486;51.010;10.366;2023-07-28T10:17:30;0.57;;;0.57;;
14789;SDS011;7486;51.010;10.366;2023-07-28T10:23:21;0.60;;;0.60;;
14789;SDS011;7486;51.010;10.366;2023-07-28T10:26:08;0.60;;;0.60;;
14789;SDS011;7486;51.010;10.366;2023-07-28T10:28:54;0.50;;;0.50;;
14789;SDS011;7486;51.010;10.366;2023-07-28T10:32:01;0.70;;;0.70;;
14789;SDS011;7486;51.010;10.366;2023-07-28T10:34:58;0.82;;;0.50;;
14789;SDS011;7486;51.010;10.366;2023-07-28T10:37:44;0.95;;;0.70;;
14789;SDS011;7486;51.010;10.366;2023-07-28T10:40:32;0.60;;;0.60;;
14789;SDS011;7486;51.010;10.366;2023-07-28T10:43:19;1.17;;;0.60;;
14789;SDS011;7486;51.010;10.366;2023-07-28T10:46:05;0.60;;;0.60;;
14789;SDS011;7486;51.010;10.366;2023-07-28T10:48:53;0.68;;;0.60;;
14789;SDS011;7486;51.010;10.366;2023-07-28T10:51:39;0.65;;;0.60;;
14789;SDS011;7486;51.010;10.366;2023-07-28T10:54:24;0.60;;;0.60;;
14789;SDS011;7486;51.010;10.366;2023-07-28T10:57:11;1.27;;;0.73;;
14789;SDS011;7486;51.010;10.366;2023-07-28T10:59:59;0.65;;;0.60;;
14789;SDS011;7486;51.010;10.366;2023-07-28T11:02:47;0.60;;;0.60;;
14789;SDS011;7486;51.010;10.366;2023-07-28T11:05:38;1.30;;;0.77;;
14789;SDS011;7486;51.010;10.366;2023-07-28T11:08:23;0.75;;;0.63;;
14789;SDS011;7486;51.010;10.366;2023-07-28T11:11:10;0.73;;;0.70;;
14789;SDS011;7486;51.010;10.366;2023-07-28T11:13:55;0.65;;;0.65;;
14789;SDS011;7486;51.010;10.366;2023-07-28T11:16:41;1.65;;;0.65;;
14789;SDS011;7486;51.010;10.366;2023-07-28T11:19:27;1.30;;;0.60;;
14789;SDS011;7486;51.010;10.366;2023-07-28T11:22:16;0.70;;;0.70;;
14789;SDS011;7486;51.010;10.366;2023-07-28T11:25:01;0.60;;;0.60;;
14789;SDS011;7486;51.010;10.366;2023-07-28T11:27:50;0.75;;;0.75;;
14789;SDS011;7486;51.010;10.366;2023-07-28T11:30:36;0.60;;;0.60;;
14789;SDS011;7486;51.010;10.366;2023-07-28T11:33:22;0.63;;;0.63;;
14789;SDS011;7486;51.010;10.366;2023-07-28T11:36:07;0.60;;;0.60;;
14789;SDS011;7486;51.010;10.366;2023-07-28T11:38:53;0.70;;;0.70;;
14789;SDS011;7486;51.010;10.366;2023-07-28T11:41:40;0.68;;;0.68;;
14789;SDS011;7486;51.010;10.366;2023-07-28T11:44:26;0.50;;;0.50;;
14789;SDS011;7486;51.010;10.366;2023-07-28T11:47:16;0.50;;;0.50;;
14789;SDS011;7486;51.010;10.366;2023-07-28T11:50:03;1.30;;;0.60;;
14789;SDS011;7486;51.010;10.366;2023-07-28T11:52:49;1.38;;;0.50;;
14789;SDS011;7486;51.010;10.366;2023-07-28T11:55:35;0.98;;;0.50;;
14789;SDS011;7486;51.010;10.366;2023-07-28T11:58:21;0.45;;;0.45;;
14789;SDS011;7486;51.010;10.366;2023-07-28T12:01:08;0.68;;;0.68;;
14789;SDS011;7486;51.010;10.366;2023-07-28T12:03:53;0.50;;;0.50;;
14789;SDS011;7486;51.010;10.366;2023-07-28T12:09:49;0.55;;;0.55;;
14789;SDS011;7486;51.010;10.366;2023-07-28T12:12:46;0.68;;;0.68;;
14789;SDS011;7486;51.010;10.366;2023-07-28T12:15:39;0.60;;;0.60;;
14789;SDS011;7486;51.010;10.366;2023-07-28T12:18:29;0.63;;;0.60;;
14789;SDS011;7486;51.010;10.366;2023-07-28T12:21:18;1.23;;;0.60;;
14789;SDS011;7486;51.010;10.366;2023-07-28T12:24:05;1.95;;;0.60;;
14789;SDS011;7486;51.010;10.366;2023-07-28T12:26:52;0.50;;;0.50;;
14789;SDS011;7486;51.010;10.366;2023-07-28T12:29:38;0.50;;;0.50;;
14789;SDS011;7486;51.010;10.366;2023-07-28T12:32:44;0.50;;;0.50;;
14789;SDS011;7486;51.010;10.366;2023-07-28T12:35:33;0.73;;;0.40;;
14789;SDS011;7486;51.010;10.366;2023-07-28T12:38:22;0.55;;;0.55;;
14789;SDS011;7486;51.010;10.366;2023-07-28T12:41:11;0.50;;;0.50;;
14789;SDS011;7486;51.010;10.366;2023-07-28T12:43:56;0.65;;;0.50;;
14789;SDS011;7486;51.010;10.366;2023-07-28T12:46:45;0.40;;;0.40;;
14789;SDS011;7486;51.010;10.366;2023-07-28T12:49:30;1.23;;;0.55;;
14789;SDS011;7486;51.010;10.366;2023-07-28T12:52:16;0.50;;;0.50;;
14789;SDS011;7486;51.010;10.366;2023-07-28T12:55:04;1.10;;;0.60;;
14789;SDS011;7486;51.010;10.366;2023-07-28T12:57:53;0.47;;;0.40;;
14789;SDS011;7486;51.010;10.366;2023-07-28T13:00:39;0.50;;;0.50;;
14789;SDS011;7486;51.010;10.366;2023-07-28T13:03:27;0.40;;;0.40;;
14789;SDS011;7486;51.010;10.366;2023-07-28T13:06:13;0.80;;;0.50;;
14789;SDS011;7486;51.010;10.366;2023-07-28T13:08:59;0.45;;;0.40;;
14789;SDS011;7486;51.010;10.366;2023-07-28T13:11:50;1.17;;;0.60;;
14789;SDS011;7486;51.010;10.366;2023-07-28T13:14:39;0.50;;;0.50;;
14789;SDS011;7486;51.010;10.366;2023-07-28T13:17:24;1.00;;;0.40;;
14789;SDS011;7486;51.010;10.366;2023-07-28T13:20:10;1.40;;;0.63;;
14789;SDS011;7486;51.010;10.366;2023-07-28T13:22:56;0.50;;;0.50;;
14789;SDS011;7486;51.010;10.366;2023-07-28T13:25:42;0.30;;;0.30;;
14789;SDS011;7486;51.010;10.366;2023-07-28T13:28:28;0.40;;;0.40;;
14789;SDS011;7486;51.010;10.366;2023-07-28T13:31:15;0.25;;;0.20;;
14789;SDS011;7486;51.010;10.366;2023-07-28T13:34:01;0.40;;;0.40;;
14789;SDS011;7486;51.010;10.366;2023-07-28T13:36:47;1.08;;;0.47;;
14789;SDS011;7486;51.010;10.366;2023-07-28T13:39:33;0.52;;;0.50;;
14789;SDS011;7486;51.010;10.366;2023-07-28T13:42:18;0.30;;;0.30;;
14789;SDS011;7486;51.010;10.366;2023-07-28T13:45:04;0.50;;;0.50;;
14789;SDS011;7486;51.010;10.366;2023-07-28T13:47:50;0.45;;;0.45;;
14789;SDS011;7486;51.010;10.366;2023-07-28T13:50:35;1.27;;;0.60;;
14789;SDS011;7486;51.010;10.366;2023-07-28T13:53:23;1.05;;;0.70;;
14789;SDS011;7486;51.010;10.366;2023-07-28T13:56:12;0.95;;;0.82;;
14789;SDS011;7486;51.010;10.366;2023-07-28T13:59:00;3.42;;;0.80;;
14789;SDS011;7486;51.010;10.366;2023-07-28T14:01:46;0.70;;;0.70;;
14789;SDS011;7486;51.010;10.366;2023-07-28T14:04:31;2.20;;;0.70;;
14789;SDS011;7486;51.010;10.366;2023-07-28T14:07:16;0.85;;;0.55;;
14789;SDS011;7486;51.010;10.366;2023-07-28T14:10:02;0.63;;;0.63;;
14789;SDS011;7486;51.010;10.366;2023-07-28T14:12:51;0.65;;;0.45;;
14789;SDS011;7486;51.010;10.366;2023-07-28T14:15:37;0.50;;;0.50;;
14789;SDS011;7486;51.010;10.366;2023-07-28T14:18:25;0.50;;;0.50;;
14789;SDS011;7486;51.010;10.366;2023-07-28T14:21:10;0.95;;;0.43;;
14789;SDS011;7486;51.010;10.366;2023-07-28T14:23:56;0.40;;;0.40;;
14789;SDS011;7486;51.010;10.366;2023-07-28T14:26:42;0.50;;;0.50;;
14789;SDS011;7486;51.010;10.366;2023-07-28T14:29:28;0.50;;;0.50;;
14789;SDS011;7486;51.010;10.366;2023-07-28T14:32:13;0.88;;;0.60;;
14789;SDS011;7486;51.010;10.366;2023-07-28T14:34:59;0.57;;;0.55;;
14789;SDS011;7486;51.010;10.366;2023-07-28T14:37:45;0.55;;;0.55;;
14789;SDS011;7486;51.010;10.366;2023-07-28T14:40:30;0.57;;;0.57;;
14789;SDS011;7486;51.010;10.366;2023-07-28T14:43:16;0.60;;;0.60;;
14789;SDS011;7486;51.010;10.366;2023-07-28T14:46:01;0.50;;;0.50;;
14789;SDS011;7486;51.010;10.366;2023-07-28T14:48:47;0.50;;;0.50;;
14789;SDS011;7486;51.010;10.366;2023-07-28T14:51:33;0.57;;;0.55;;
14789;SDS011;7486;51.010;10.366;2023-07-28T14:54:18;1.55;;;0.80;;
14789;SDS011;7486;51.010;10.366;2023-07-28T14:57:04;0.90;;;0.90;;
14789;SDS011;7486;51.010;10.366;2023-07-28T14:59:58;0.90;;;0.80;;
14789;SDS011;7486;51.010;10.366;2023-07-28T15:02:44;0.77;;;0.65;;
14789;SDS011;7486;51.010;10.366;2023-07-28T15:05:30;0.77;;;0.77;;
14789;SDS011;7486;51.010;10.366;2023-07-28T15:08:15;0.60;;;0.60;;
14789;SDS011;7486;51.010;10.366;2023-07-28T15:11:00;0.60;;;0.60;;
14789;SDS011;7486;51.010;10.366;2023-07-28T15:13:46;0.70;;;0.70;;
14789;SDS011;7486;51.010;10.366;2023-07-28T15:16:31;0.80;;;0.80;;
14789;SDS011;7486;51.010;10.366;2023-07-28T15:19:17;0.70;;;0.70;;
14789;SDS011;7486;51.010;10.366;2023-07-28T15:22:02;1.42;;;0.70;;
14789;SDS011;7486;51.010;10.366;2023-07-28T15:24:48;0.75;;;0.75;;
14789;SDS011;7486;51.010;10.366;2023-07-28T15:27:33;0.90;;;0.85;;
14789;SDS011;7486;51.010;10.366;2023-07-28T15:30:18;1.58;;;0.80;;
14789;SDS011;7486;51.010;10.366;2023-07-28T15:33:04;0.50;;;0.50;;
14789;SDS011;7486;51.010;10.366;2023-07-28T15:35:50;0.70;;;0.70;;
14789;SDS011;7486;51.010;10.366;2023-07-28T15:38:35;1.15;;;0.57;;
14789;SDS011;7486;51.010;10.366;2023-07-28T15:41:22;0.50;;;0.50;;
14789;SDS011;7486;51.010;10.366;2023-07-28T15:44:09;0.50;;;0.50;;
14789;SDS011;7486;51.010;10.366;2023-07-28T15:46:55;0.52;;;0.50;;
14789;SDS011;7486;51.010;10.366;2023-07-28T15:49:41;0.57;;;0.30;;
14789;SDS011;7486;51.010;10.366;2023-07-28T15:52:26;0.70;;;0.38;;
14789;SDS011;7486;51.010;10.366;2023-07-28T15:55:12;1.05;;;0.50;;
14789;SDS011;7486;51.010;10.366;2023-07-28T15:57:57;0.20;;;0.20;;
14789;SDS011;7486;51.010;10.366;2023-07-28T16:00:43;0.40;;;0.40;;
14789;SDS011;7486;51.010;10.366;2023-07-28T16:03:30;0.30;;;0.30;;
14789;SDS011;7486;51.010;10.366;2023-07-28T16:06:16;0.50;;;0.50;;
14789;SDS011;7486;51.010;10.366;2023-07-28T16:09:01;0.88;;;0.60;;
14789;SDS011;7486;51.010;10.366;2023-07-28T16:11:59;0.28;;;0.28;;
14789;SDS011;7486;51.010;10.366;2023-07-28T16:14:45;3.13;;;0.57;;
14789;SDS011;7486;51.010;10.366;2023-07-28T16:17:31;0.22;;;0.22;;
14789;SDS011;7486;51.010;10.366;2023-07-28T16:20:16;0.32;;;0.32;;
14789;SDS011;7486;51.010;10.366;2023-07-28T16:23:02;0.63;;;0.50;;
14789;SDS011;7486;51.010;10.366;2023-07-28T16:25:48;2.17;;;0.80;;
14789;SDS011;7486;51.010;10.366;2023-07-28T16:28:33;1.88;;;0.90;;
14789;SDS011;7486;51.010;10.366;2023-07-28T16:31:19;0.90;;;0.80;;
14789;SDS011;7486;51.010;10.366;2023-07-28T16:34:05;0.90;;;0.90;;
14789;SDS011;7486;51.010;10.366;2023-07-28T16:36:50;0.88;;;0.80;;
14789;SDS011;7486;51.010;10.366;2023-07-28T16:39:36;1.40;;;0.80;;
14789;SDS011;7486;51.010;10.366;2023-07-28T16:42:21;0.88;;;0.70;;
14789;SDS011;7486;51.010;10.366;2023-07-28T16:45:07;1.20;;;0.95;;
14789;SDS011;7486;51.010;10.366;2023-07-28T16:47:53;1.23;;;1.00;;
14789;SDS011;7486;51.010;10.366;2023-07-28T16:50:39;0.93;;;0.93;;
14789;SDS011;7486;51.010;10.366;2023-07-28T16:53:24;1.90;;;0.98;;
14789;SDS011;7486;51.010;10.366;2023-07-28T16:56:10;1.35;;;1.00;;